Time;durP1;ratioP1;P1;durP2;ratioP2;P2;SDS_P1;SDS_P2;PMS_P1;PMS_P2;Temp;Humidity;BMP_temperature;BMP_pressure;BME280_temperature;BME280_humidity;BME280_pressure;Samples;Min_cycle;Max_cycle;Signal;HPM_P1;HPM_P2
2022/09/27 00:00:40;;;;;;;;;;;11.40;99.90;;;;;;5055034;28;19908;-86
2022/09/27 00:03:05;;;;;;;;;;;11.40;99.90;;;;;;5054965;28;19905;-87
2022/09/27 00:05:31;;;;;;;;;;;11.40;99.90;;;;;;5054138;28;19904;-88
2022/09/27 00:07:56;;;;;;;;;;;11.40;99.90;;;;;;5053964;28;19912;-89
2022/09/27 00:10:22;;;;;;;;;;;11.40;99.90;;;;;;5054293;28;19904;-89
2022/09/27 00:12:48;;;;;;;;;;;11.40;99.90;;;;;;5053993;28;20060;-89
2022/09/27 00:15:14;;;;;;;;;;;11.40;99.90;;;;;;5053689;28;19955;-87
2022/09/27 00:17:39;;;;;;;;;;;11.40;99.90;;;;;;5072977;28;19909;-88
2022/09/27 00:20:06;;;;;;;;;;;11.40;99.90;;;;;;5073854;28;19913;-88
2022/09/27 00:22:31;;;;;;;;;;;11.40;99.90;;;;;;5073553;28;19908;-86
2022/09/27 00:24:57;;;;;;;;;;;11.40;99.90;;;;;;5061415;28;19905;-88
2022/09/27 00:27:24;;;;;;;;;;;11.40;99.90;;;;;;5053659;28;20277;-87
2022/09/27 00:29:49;;;;;;;;;;;11.50;99.90;;;;;;5053681;28;19904;-87
2022/09/27 00:32:15;;;;;;;;;;;11.50;99.90;;;;;;5053511;28;20011;-88
2022/09/27 00:34:40;;;;;;;;;;;11.50;99.90;;;;;;5053606;28;19912;-87
2022/09/27 00:37:06;;;;;;;;;;;11.60;99.90;;;;;;5053693;28;20011;-87
2022/09/27 00:39:32;;;;;;;;;;;11.60;99.90;;;;;;5054060;28;19912;-89
2022/09/27 00:41:57;;;;;;;;;;;11.70;99.90;;;;;;5053838;28;19904;-87
2022/09/27 00:44:32;;;;;;;;;;;11.70;99.90;;;;;;5052856;28;19908;-87
2022/09/27 00:46:57;;;;;;;;;;;11.80;99.90;;;;;;5053646;28;19996;-87
2022/09/27 00:49:30;;;;;;;;;;;11.80;99.90;;;;;;5054563;28;19993;-86
2022/09/27 00:52:07;;;;;;;;;;;11.90;99.90;;;;;;5058820;28;19904;-87
2022/09/27 00:54:34;;;;;;;;;;;12.00;99.90;;;;;;5062453;28;19905;-86
2022/09/27 00:57:01;;;;;;;;;;;12.00;99.90;;;;;;5053179;28;19942;-86
2022/09/27 00:59:29;;;;;;;;;;;12.00;99.90;;;;;;5052640;28;20026;-86
2022/09/27 01:01:55;;;;;;;;;;;12.00;99.90;;;;;;5054063;28;19905;-86
2022/09/27 01:04:22;;;;;;;;;;;12.00;99.90;;;;;;5052640;28;19912;-86
2022/09/27 01:06:48;;;;;;;;;;;12.00;99.90;;;;;;5053666;28;19936;-85
2022/09/27 01:09:14;;;;;;;;;;;12.00;99.90;;;;;;5052701;28;19905;-86
2022/09/27 01:11:45;;;;;;;;;;;12.00;99.90;;;;;;5052629;28;20399;-86
2022/09/27 01:14:16;;;;;;;;;;;12.00;99.90;;;;;;5052778;28;19916;-87
2022/09/27 01:16:47;;;;;;;;;;;12.10;99.90;;;;;;5054063;28;19908;-87
2022/09/27 01:19:21;;;;;;;;;;;12.10;99.90;;;;;;5052681;28;20301;-87
2022/09/27 01:21:55;;;;;;;;;;;12.10;99.90;;;;;;5052755;28;19904;-86
2022/09/27 01:24:47;;;;;;;;;;;12.10;99.90;;;;;;5062412;28;19904;-87
2022/09/27 01:27:19;;;;;;;;;;;12.20;99.90;;;;;;5074034;28;19904;-88
2022/09/27 01:29:44;;;;;;;;;;;12.20;99.90;;;;;;5072968;28;20101;-89
2022/09/27 01:32:30;;;;;;;;;;;12.20;99.90;;;;;;5065386;28;20357;-88
2022/09/27 01:35:15;;;;;;;;;;;12.20;99.90;;;;;;5052234;28;19905;-88
2022/09/27 01:37:47;;;;;;;;;;;12.10;99.90;;;;;;5012552;28;19940;-86
2022/09/27 01:40:37;;;;;;;;;;;12.10;99.90;;;;;;5060153;28;20430;-88
2022/09/27 01:43:08;;;;;;;;;;;12.10;99.90;;;;;;5072527;28;20305;-88
2022/09/27 01:45:41;;;;;;;;;;;12.10;99.90;;;;;;5071233;28;20022;-88
2022/09/27 01:48:14;;;;;;;;;;;12.00;99.90;;;;;;5065505;28;19905;-87
2022/09/27 01:50:41;;;;;;;;;;;12.00;99.90;;;;;;5052662;28;19905;-88
2022/09/27 01:53:22;;;;;;;;;;;12.00;99.90;;;;;;5051955;28;19962;-88
2022/09/27 01:55:50;;;;;;;;;;;11.90;99.90;;;;;;5051514;28;19963;-88
2022/09/27 01:58:22;;;;;;;;;;;11.90;99.90;;;;;;5050012;28;20023;-86
2022/09/27 02:00:50;;;;;;;;;;;11.80;99.90;;;;;;5050545;28;19940;-89
2022/09/27 02:03:19;;;;;;;;;;;11.80;99.90;;;;;;5063965;28;20245;-89
2022/09/27 02:05:46;;;;;;;;;;;11.80;99.90;;;;;;5072263;28;19911;-86
2022/09/27 02:08:16;;;;;;;;;;;11.80;99.90;;;;;;5073683;28;19927;-88
2022/09/27 02:10:44;;;;;;;;;;;11.70;99.90;;;;;;5071891;28;20289;-88
2022/09/27 02:13:09;;;;;;;;;;;11.80;99.90;;;;;;5056401;28;19926;-87
2022/09/27 02:16:01;;;;;;;;;;;11.70;99.90;;;;;;5052142;28;19999;-86
2022/09/27 02:18:45;;;;;;;;;;;11.60;99.90;;;;;;5029651;28;19959;-87
2022/09/27 02:21:13;;;;;;;;;;;11.70;99.90;;;;;;5051620;28;19912;-85
2022/09/27 02:23:42;;;;;;;;;;;11.70;99.90;;;;;;5051806;28;19916;-87
2022/09/27 02:26:11;;;;;;;;;;;11.70;99.90;;;;;;5051814;28;20038;-86
2022/09/27 02:28:39;;;;;;;;;;;11.70;99.90;;;;;;5051423;28;19915;-86
2022/09/27 02:31:05;;;;;;;;;;;11.70;99.90;;;;;;5051783;28;19911;-87
2022/09/27 02:33:34;;;;;;;;;;;11.70;99.90;;;;;;5051368;28;20324;-86
2022/09/27 02:36:00;;;;;;;;;;;11.70;99.90;;;;;;5057193;28;19947;-88
2022/09/27 02:38:25;;;;;;;;;;;11.60;99.90;;;;;;5071479;28;19993;-88
2022/09/27 02:40:51;;;;;;;;;;;11.70;99.90;;;;;;5076255;28;19988;-86
2022/09/27 02:43:19;;;;;;;;;;;11.70;99.90;;;;;;5076485;28;20460;-86
2022/09/27 02:46:05;;;;;;;;;;;11.70;99.90;;;;;;5073228;28;19904;-85
2022/09/27 02:48:30;;;;;;;;;;;11.70;99.90;;;;;;5071446;28;19932;-87
2022/09/27 02:51:02;;;;;;;;;;;11.70;99.90;;;;;;5072627;28;19909;-85
2022/09/27 02:53:30;;;;;;;;;;;11.70;99.90;;;;;;5071504;28;19913;-86
2022/09/27 02:55:59;;;;;;;;;;;11.70;99.90;;;;;;5059846;28;19904;-86
2022/09/27 02:58:37;;;;;;;;;;;11.70;99.90;;;;;;5051641;28;19950;-86
2022/09/27 03:01:08;;;;;;;;;;;11.70;99.90;;;;;;5052194;28;19905;-86
2022/09/27 03:03:45;;;;;;;;;;;11.70;99.90;;;;;;5051257;28;19911;-87
2022/09/27 03:06:12;;;;;;;;;;;11.60;99.90;;;;;;5052201;28;19905;-87
2022/09/27 03:08:37;;;;;;;;;;;11.60;99.90;;;;;;5053945;28;19905;-86
2022/09/27 03:11:03;;;;;;;;;;;11.50;99.90;;;;;;5056223;28;19912;-87
2022/09/27 03:13:29;;;;;;;;;;;11.50;99.90;;;;;;5055923;28;19917;-87
2022/09/27 03:15:55;;;;;;;;;;;11.50;99.90;;;;;;5054988;28;19912;-86
2022/09/27 03:18:20;;;;;;;;;;;11.40;99.90;;;;;;5054774;28;19966;-86
2022/09/27 03:20:46;;;;;;;;;;;11.40;99.90;;;;;;5054771;28;19905;-88
2022/09/27 03:23:11;;;;;;;;;;;11.30;99.90;;;;;;5054676;28;19931;-87
2022/09/27 03:25:37;;;;;;;;;;;11.30;99.90;;;;;;5054803;28;19905;-87
2022/09/27 03:28:03;;;;;;;;;;;11.20;99.90;;;;;;5062964;28;19904;-87
2022/09/27 03:30:28;;;;;;;;;;;11.20;99.90;;;;;;5070150;28;19954;-87
2022/09/27 03:32:54;;;;;;;;;;;11.10;99.90;;;;;;5046189;28;20288;-88
2022/09/27 03:35:19;;;;;;;;;;;11.10;99.90;;;;;;5054283;28;19938;-87
2022/09/27 03:37:46;;;;;;;;;;;11.00;99.90;;;;;;5055040;28;19960;-87
2022/09/27 03:40:11;;;;;;;;;;;11.10;99.90;;;;;;5055003;28;20460;-86
2022/09/27 03:42:37;;;;;;;;;;;11.00;99.90;;;;;;5056123;28;19944;-88
2022/09/27 03:45:03;;;;;;;;;;;11.00;99.90;;;;;;5054369;28;19916;-86
2022/09/27 03:47:28;;;;;;;;;;;11.00;99.90;;;;;;5054085;28;20300;-86
2022/09/27 03:49:54;;;;;;;;;;;11.00;99.90;;;;;;5055495;28;19912;-85
2022/09/27 03:52:19;;;;;;;;;;;10.90;99.90;;;;;;5054797;28;20383;-86
2022/09/27 03:54:45;;;;;;;;;;;10.90;99.90;;;;;;5054116;28;19904;-87
2022/09/27 03:57:10;;;;;;;;;;;10.80;99.90;;;;;;5054253;28;20419;-88
2022/09/27 03:59:36;;;;;;;;;;;10.70;99.90;;;;;;5054025;28;19960;-86
2022/09/27 04:02:01;;;;;;;;;;;10.70;99.90;;;;;;5053269;28;20301;-86
2022/09/27 04:04:27;;;;;;;;;;;10.60;99.90;;;;;;5053789;28;19905;-86
2022/09/27 04:06:52;;;;;;;;;;;10.60;99.90;;;;;;5053112;28;19904;-85
2022/09/27 04:09:18;;;;;;;;;;;10.60;99.90;;;;;;5053584;28;19913;-86
2022/09/27 04:11:43;;;;;;;;;;;10.70;99.90;;;;;;5039429;28;19923;-85
2022/09/27 04:14:11;;;;;;;;;;;10.70;99.90;;;;;;5036289;28;20382;-86
2022/09/27 04:16:38;;;;;;;;;;;10.80;99.90;;;;;;5036119;28;19909;-86
2022/09/27 04:19:04;;;;;;;;;;;10.80;99.90;;;;;;5048007;28;19906;-86
2022/09/27 04:21:30;;;;;;;;;;;10.90;99.90;;;;;;5052545;28;19916;-85
2022/09/27 04:23:55;;;;;;;;;;;10.90;99.90;;;;;;5052560;28;19927;-85
2022/09/27 04:26:21;;;;;;;;;;;10.90;99.90;;;;;;5052135;28;20392;-87
2022/09/27 04:28:48;;;;;;;;;;;11.00;99.90;;;;;;5052633;28;19911;-87
2022/09/27 04:31:14;;;;;;;;;;;11.10;99.90;;;;;;5053329;28;19948;-85
2022/09/27 04:33:39;;;;;;;;;;;11.30;99.90;;;;;;5053486;28;20442;-88
2022/09/27 04:38:49;;;;;;;;;;;11.40;99.90;;;;;;5055382;28;20006;-87
2022/09/27 04:41:15;;;;;;;;;;;11.40;99.90;;;;;;5053581;28;19909;-88
2022/09/27 04:43:40;;;;;;;;;;;11.40;99.90;;;;;;5053525;28;19909;-88
2022/09/27 04:46:06;;;;;;;;;;;11.30;99.90;;;;;;5053525;28;19905;-88
2022/09/27 04:48:31;;;;;;;;;;;11.40;99.90;;;;;;5053921;28;19905;-87
2022/09/27 04:50:57;;;;;;;;;;;11.40;99.90;;;;;;5054025;28;19995;-88
2022/09/27 04:53:23;;;;;;;;;;;11.40;99.90;;;;;;5053718;28;20246;-85
2022/09/27 04:55:49;;;;;;;;;;;11.40;99.90;;;;;;5053341;28;19912;-88
2022/09/27 04:58:14;;;;;;;;;;;11.50;99.90;;;;;;5053116;28;19962;-87
2022/09/27 05:00:42;;;;;;;;;;;11.50;99.90;;;;;;5052675;28;19904;-87
2022/09/27 05:03:07;;;;;;;;;;;11.60;99.90;;;;;;5060256;28;19912;-86
2022/09/27 05:05:33;;;;;;;;;;;11.60;99.90;;;;;;5073198;28;19904;-88
2022/09/27 05:07:59;;;;;;;;;;;11.60;99.90;;;;;;5073095;28;19999;-87
2022/09/27 05:10:24;;;;;;;;;;;11.70;99.90;;;;;;5073307;28;20388;-88
2022/09/27 05:12:50;;;;;;;;;;;11.70;99.90;;;;;;5058678;28;20129;-87
2022/09/27 05:15:15;;;;;;;;;;;11.70;99.90;;;;;;5053412;28;19905;-86
2022/09/27 05:17:41;;;;;;;;;;;11.80;99.90;;;;;;5053439;28;19905;-87
2022/09/27 05:20:08;;;;;;;;;;;11.80;99.90;;;;;;5052806;28;19915;-88
2022/09/27 05:22:34;;;;;;;;;;;11.90;99.90;;;;;;5053214;28;20278;-88
2022/09/27 05:24:59;;;;;;;;;;;11.90;99.90;;;;;;5052748;28;19996;-86
2022/09/27 05:27:25;;;;;;;;;;;12.00;99.90;;;;;;5052675;28;20388;-87
2022/09/27 05:29:50;;;;;;;;;;;12.00;99.90;;;;;;5052568;28;19999;-87
2022/09/27 05:32:16;;;;;;;;;;;12.10;99.90;;;;;;5053037;28;19913;-88
2022/09/27 05:34:41;;;;;;;;;;;12.10;99.90;;;;;;5052831;28;20276;-87
2022/09/27 05:37:07;;;;;;;;;;;12.20;99.90;;;;;;5053170;28;19905;-89
2022/09/27 05:39:33;;;;;;;;;;;12.20;99.90;;;;;;5052974;28;19980;-87
2022/09/27 05:41:58;;;;;;;;;;;12.20;99.90;;;;;;5052277;28;19913;-87
2022/09/27 05:44:24;;;;;;;;;;;12.20;99.90;;;;;;5052477;28;19905;-88
2022/09/27 05:46:50;;;;;;;;;;;12.30;99.90;;;;;;5053173;28;19905;-87
2022/09/27 05:49:16;;;;;;;;;;;12.30;99.90;;;;;;5052893;28;19927;-87
2022/09/27 05:51:41;;;;;;;;;;;12.40;99.90;;;;;;5052435;28;19912;-87
2022/09/27 05:54:07;;;;;;;;;;;12.40;99.90;;;;;;5052092;28;20015;-88
2022/09/27 05:56:32;;;;;;;;;;;12.50;99.90;;;;;;5052348;28;19939;-88
2022/09/27 05:58:58;;;;;;;;;;;12.60;99.90;;;;;;5052459;28;19989;-88
2022/09/27 06:01:26;;;;;;;;;;;12.60;99.90;;;;;;5052560;28;19905;-88
2022/09/27 06:03:52;;;;;;;;;;;12.70;99.90;;;;;;5052070;28;19905;-88
2022/09/27 06:06:18;;;;;;;;;;;12.80;99.90;;;;;;5052517;28;20419;-88
2022/09/27 06:08:44;;;;;;;;;;;12.90;99.90;;;;;;5052327;28;19904;-88
2022/09/27 06:11:13;;;;;;;;;;;13.00;99.90;;;;;;5052040;28;19947;-88
2022/09/27 06:13:39;;;;;;;;;;;13.30;99.90;;;;;;5052097;28;19928;-88
2022/09/27 06:16:05;;;;;;;;;;;13.50;99.90;;;;;;5052250;28;19905;-88
2022/09/27 06:18:31;;;;;;;;;;;13.60;99.90;;;;;;5052024;28;19913;-87
2022/09/27 06:21:00;;;;;;;;;;;13.60;99.90;;;;;;5052449;28;20057;-87
2022/09/27 06:23:26;;;;;;;;;;;13.70;99.90;;;;;;5053399;28;19905;-88
2022/09/27 06:25:52;;;;;;;;;;;13.70;99.90;;;;;;5052994;28;19904;-87
2022/09/27 06:28:18;;;;;;;;;;;13.70;99.90;;;;;;5051758;28;19951;-88
2022/09/27 06:30:44;;;;;;;;;;;13.80;99.90;;;;;;5052991;28;19946;-89
2022/09/27 06:33:16;;;;;;;;;;;13.70;99.90;;;;;;5052839;28;20010;-87
2022/09/27 06:35:44;;;;;;;;;;;13.60;99.90;;;;;;5048514;28;19911;-87
2022/09/27 06:38:10;;;;;;;;;;;13.60;99.90;;;;;;5052764;28;19920;-88
2022/09/27 06:40:36;;;;;;;;;;;13.50;99.90;;;;;;5051390;28;19911;-87
2022/09/27 06:43:06;;;;;;;;;;;13.50;99.90;;;;;;5054457;28;19983;-87
2022/09/27 06:45:34;;;;;;;;;;;13.60;99.90;;;;;;5053572;28;19905;-87
2022/09/27 06:48:01;;;;;;;;;;;13.60;99.90;;;;;;5056692;28;19909;-87
2022/09/27 06:50:27;;;;;;;;;;;13.80;99.90;;;;;;5055323;28;19909;-88
2022/09/27 06:52:53;;;;;;;;;;;13.70;99.90;;;;;;5054095;28;19923;-87
2022/09/27 06:55:18;;;;;;;;;;;13.60;99.90;;;;;;5054495;28;19995;-88
2022/09/27 07:00:28;;;;;;;;;;;13.80;99.90;;;;;;5057437;28;19958;-88
2022/09/27 07:02:57;;;;;;;;;;;13.70;99.90;;;;;;5056849;28;19904;-87
2022/09/27 07:05:24;;;;;;;;;;;13.70;99.90;;;;;;5055615;28;20360;-87
2022/09/27 07:07:50;;;;;;;;;;;13.70;99.90;;;;;;5055523;28;20324;-88
2022/09/27 07:10:18;;;;;;;;;;;13.70;99.90;;;;;;5055160;28;19908;-88
2022/09/27 07:12:47;;;;;;;;;;;13.60;99.90;;;;;;5055027;28;19917;-88
2022/09/27 07:15:13;;;;;;;;;;;13.60;99.90;;;;;;5056622;28;19928;-89
2022/09/27 07:17:39;;;;;;;;;;;13.60;99.90;;;;;;5055427;28;19978;-89
2022/09/27 07:20:04;;;;;;;;;;;13.60;99.90;;;;;;5056173;28;20330;-89
2022/09/27 07:22:30;;;;;;;;;;;13.70;99.90;;;;;;5055434;28;19905;-87
2022/09/27 07:24:55;;;;;;;;;;;13.80;99.90;;;;;;5056659;28;19997;-89
2022/09/27 07:27:21;;;;;;;;;;;13.90;99.90;;;;;;5056087;28;20000;-89
2022/09/27 07:29:46;;;;;;;;;;;13.90;99.90;;;;;;5055990;28;19909;-88
2022/09/27 07:32:12;;;;;;;;;;;13.90;99.90;;;;;;5054978;28;19912;-88
2022/09/27 07:34:37;;;;;;;;;;;13.90;99.90;;;;;;5054972;28;19982;-89
2022/09/27 07:37:04;;;;;;;;;;;13.90;99.90;;;;;;5055040;28;19904;-88
2022/09/27 07:39:30;;;;;;;;;;;13.90;99.90;;;;;;5056391;28;20284;-89
2022/09/27 07:41:56;;;;;;;;;;;13.90;99.90;;;;;;5056059;28;19913;-89
2022/09/27 07:44:22;;;;;;;;;;;13.90;99.90;;;;;;5055071;28;19927;-88
2022/09/27 07:46:47;;;;;;;;;;;14.10;99.90;;;;;;5054898;28;19905;-89
2022/09/27 07:49:13;;;;;;;;;;;14.30;99.90;;;;;;5054888;28;19908;-89
2022/09/27 07:51:38;;;;;;;;;;;14.50;99.90;;;;;;5054876;28;19932;-89
2022/09/27 07:54:04;;;;;;;;;;;14.80;99.90;;;;;;5054334;28;19913;-89
2022/09/27 07:56:30;;;;;;;;;;;15.10;99.90;;;;;;5054444;28;19905;-90
2022/09/27 07:58:55;;;;;;;;;;;15.50;99.90;;;;;;5054519;28;19905;-90
2022/09/27 08:01:21;;;;;;;;;;;16.00;99.90;;;;;;5054783;28;19920;-88
2022/09/27 08:03:46;;;;;;;;;;;16.40;99.90;;;;;;5054368;28;20361;-89
2022/09/27 08:06:12;;;;;;;;;;;16.40;99.90;;;;;;5054719;28;20203;-88
2022/09/27 08:08:38;;;;;;;;;;;16.10;99.90;;;;;;5055025;28;19905;-90
2022/09/27 08:11:12;;;;;;;;;;;15.80;99.90;;;;;;5054633;28;19956;-89
2022/09/27 08:13:38;;;;;;;;;;;15.50;99.90;;;;;;5053908;28;19913;-88
2022/09/27 08:16:04;;;;;;;;;;;15.30;99.90;;;;;;5053936;28;19928;-89
2022/09/27 08:18:29;;;;;;;;;;;15.20;99.90;;;;;;5054529;28;20324;-89
2022/09/27 08:20:56;;;;;;;;;;;15.00;99.90;;;;;;5054432;28;19912;-89
2022/09/27 08:23:21;;;;;;;;;;;14.90;99.90;;;;;;5056865;28;20392;-89
2022/09/27 08:25:51;;;;;;;;;;;14.90;99.90;;;;;;5058227;28;19905;-90
2022/09/27 08:28:17;;;;;;;;;;;14.80;99.90;;;;;;5055839;28;20365;-89
2022/09/27 08:30:42;;;;;;;;;;;14.80;99.90;;;;;;5054088;28;19920;-89
2022/09/27 08:33:08;;;;;;;;;;;14.80;99.90;;;;;;5053727;28;19913;-89
2022/09/27 08:35:34;;;;;;;;;;;14.90;99.90;;;;;;5054031;28;19905;-89
2022/09/27 08:38:00;;;;;;;;;;;15.10;99.90;;;;;;5054068;28;19927;-89
2022/09/27 08:40:44;;;;;;;;;;;15.30;99.90;;;;;;5053584;28;20292;-89
2022/09/27 08:43:25;;;;;;;;;;;15.30;99.90;;;;;;5053991;28;19924;-89
2022/09/27 08:45:53;;;;;;;;;;;15.30;99.90;;;;;;5053977;28;19905;-88
2022/09/27 08:48:20;;;;;;;;;;;15.40;99.90;;;;;;5053739;28;19913;-88
2022/09/27 08:50:47;;;;;;;;;;;15.40;99.90;;;;;;5053544;28;20003;-89
2022/09/27 08:53:12;;;;;;;;;;;15.40;99.90;;;;;;5053605;28;20263;-89
2022/09/27 08:55:46;;;;;;;;;;;15.50;99.90;;;;;;5053446;28;19932;-90
2022/09/27 08:58:15;;;;;;;;;;;15.60;99.90;;;;;;5052535;28;20353;-89
2022/09/27 09:00:41;;;;;;;;;;;15.70;99.90;;;;;;5053277;28;19911;-90
2022/09/27 09:03:15;;;;;;;;;;;15.80;99.90;;;;;;5052944;28;20443;-90
2022/09/27 09:05:40;;;;;;;;;;;16.00;99.90;;;;;;5053013;28;19908;-90
2022/09/27 09:08:17;;;;;;;;;;;16.10;99.90;;;;;;5053423;28;19919;-89
2022/09/27 09:13:52;;;;;;;;;;;16.20;99.90;;;;;;5054661;28;20047;-90
2022/09/27 09:16:37;;;;;;;;;;;16.00;99.90;;;;;;5053620;28;19905;-88
2022/09/27 09:19:14;;;;;;;;;;;16.00;99.90;;;;;;5051593;28;19911;-88
2022/09/27 09:21:58;;;;;;;;;;;15.90;99.90;;;;;;5054262;28;20635;-88
2022/09/27 09:24:30;;;;;;;;;;;16.00;99.90;;;;;;5052625;28;19905;-89
2022/09/27 09:27:08;;;;;;;;;;;16.10;99.90;;;;;;5053160;28;19904;-89
2022/09/27 09:29:36;;;;;;;;;;;16.10;99.90;;;;;;5052857;28;19904;-90
2022/09/27 09:32:21;;;;;;;;;;;16.10;99.90;;;;;;5052577;28;19935;-89
2022/09/27 09:34:50;;;;;;;;;;;16.20;99.90;;;;;;5052779;28;19912;-90
2022/09/27 09:37:20;;;;;;;;;;;16.30;99.90;;;;;;5052713;28;19904;-89
2022/09/27 09:39:45;;;;;;;;;;;16.50;99.90;;;;;;5052593;28;19995;-89
2022/09/27 09:42:11;;;;;;;;;;;16.90;99.90;;;;;;5053042;28;19904;-89
2022/09/27 09:44:40;;;;;;;;;;;17.20;99.90;;;;;;5052583;28;19905;-90
2022/09/27 09:49:58;;;;;;;27.48;19.88;;;17.10;99.90;;;;;;5130846;27;20306;-88
2022/09/27 09:52:28;;;;;;;30.75;20.25;;;16.90;99.90;;;;;;5092526;28;20126;-90
2022/09/27 09:55:27;;;;;;;27.75;22.45;;;16.80;99.90;;;;;;5092811;28;20024;-88
2022/09/27 09:58:17;;;;;;;31.17;21.77;;;16.60;99.90;;;;;;5087595;28;20039;-87
2022/09/27 10:00:44;;;;;;;29.25;22.60;;;16.50;99.90;;;;;;5110212;28;20106;-90
2022/09/27 10:03:10;;;;;;;29.17;23.25;;;16.30;99.90;;;;;;5092021;28;20040;-89
2022/09/27 10:05:35;;;;;;;27.92;22.95;;;16.00;99.90;;;;;;5092816;28;20031;-90
2022/09/27 10:08:04;;;;;;;20.05;17.25;;;16.00;99.90;;;;;;5092013;28;20032;-88
2022/09/27 10:10:30;;;;;;;25.38;18.67;;;16.00;99.90;;;;;;5092517;28;20024;-89
2022/09/27 10:12:56;;;;;;;25.65;21.80;;;15.80;99.90;;;;;;5091705;28;20586;-88
2022/09/27 10:15:25;;;;;;;28.60;20.60;;;15.80;99.90;;;;;;5092119;28;20027;-89
2022/09/27 10:17:55;;;;;;;28.02;21.42;;;15.70;99.90;;;;;;5089735;28;20055;-89
2022/09/27 10:20:42;;;;;;;27.65;21.40;;;15.60;99.90;;;;;;5059725;28;20016;-88
2022/09/27 10:23:19;;;;;;;25.35;19.73;;;15.70;99.90;;;;;;5051695;28;20509;-90
2022/09/27 10:25:48;;;;;;;18.88;16.63;;;15.90;99.90;;;;;;5069126;28;20024;-91
2022/09/27 10:28:36;;;;;;;24.58;17.35;;;15.80;99.90;;;;;;5051244;28;20178;-91
2022/09/27 10:31:21;;;;;;;19.60;16.17;;;15.80;99.90;;;;;;5069307;28;20094;-91
2022/09/27 10:33:58;;;;;;;21.67;15.93;;;15.70;99.90;;;;;;5051291;28;20024;-91
2022/09/27 10:36:35;;;;;;;19.08;15.88;;;15.50;99.90;;;;;;5051191;28;20029;-91
2022/09/27 10:39:05;;;;;;;22.77;17.33;;;15.40;99.90;;;;;;5051657;28;20028;-91
2022/09/27 10:41:37;;;;;;;24.33;17.92;;;15.30;99.90;;;;;;5051979;28;20021;-90
2022/09/27 10:44:18;;;;;;;19.77;17.50;;;15.10;99.90;;;;;;5051784;28;20082;-91
2022/09/27 10:46:47;;;;;;;22.33;15.68;;;15.00;99.90;;;;;;5050747;28;20025;-91
2022/09/27 10:49:38;;;;;;;24.95;17.50;;;14.90;99.90;;;;;;5062648;28;20041;-90
2022/09/27 10:52:15;;;;;;;22.63;19.25;;;15.00;99.90;;;;;;5067539;28;20016;-90
2022/09/27 10:54:41;;;;;;;25.02;18.90;;;15.10;99.90;;;;;;5068824;28;20507;-92
2022/09/27 10:57:13;;;;;;;22.70;15.88;;;15.10;99.90;;;;;;5067497;28;20024;-91
2022/09/27 10:59:42;;;;;;;21.27;16.23;;;15.10;99.90;;;;;;5062580;28;20029;-92
2022/09/27 11:02:32;;;;;;;25.40;17.60;;;15.20;99.90;;;;;;5055642;28;20040;-90
2022/09/27 11:05:28;;;;;;;21.88;17.00;;;15.40;99.90;;;;;;5054640;28;20025;-90
2022/09/27 11:07:58;;;;;;;19.73;15.10;;;15.50;99.90;;;;;;5051644;28;20040;-91
2022/09/27 11:10:30;;;;;;;17.38;13.82;;;15.50;99.90;;;;;;5054991;28;20092;-91
2022/09/27 11:13:16;;;;;;;19.02;15.77;;;15.70;99.90;;;;;;5070017;28;20016;-91
2022/09/27 11:16:03;;;;;;;30.35;21.58;;;15.50;99.90;;;;;;5065753;28;20075;-92
2022/09/27 11:18:46;;;;;;;27.20;20.67;;;15.50;99.90;;;;;;5055034;28;20021;-91
2022/09/27 11:21:39;;;;;;;30.90;21.75;;;15.30;99.90;;;;;;5054960;28;20025;-92
2022/09/27 11:24:47;;;;;;;32.38;24.67;;;15.30;99.90;;;;;;5046202;28;20067;-91
2022/09/27 11:27:27;;;;;;;38.83;26.23;;;15.20;99.90;;;;;;5013448;28;20060;-91
2022/09/27 11:30:02;;;;;;;35.65;25.40;;;15.10;99.90;;;;;;5050083;28;20132;-91
2022/09/27 11:32:33;;;;;;;31.63;24.25;;;15.10;99.90;;;;;;5054008;28;20056;-89
2022/09/27 11:35:17;;;;;;;28.92;22.50;;;15.00;99.90;;;;;;5053919;28;20021;-90
2022/09/27 11:37:43;;;;;;;31.85;23.17;;;14.80;99.90;;;;;;5054607;28;20052;-91
2022/09/27 11:40:40;;;;;;;29.33;21.98;;;14.80;99.90;;;;;;5054555;28;20394;-91
2022/09/27 11:43:10;;;;;;;28.55;20.85;;;14.90;99.90;;;;;;5037200;28;20040;-90
2022/09/27 11:45:49;;;;;;;27.27;21.73;;;14.80;99.90;;;;;;5051305;28;20021;-91
2022/09/27 11:48:21;;;;;;;26.50;17.65;;;14.80;99.90;;;;;;5053203;28;20379;-91
2022/09/27 11:51:25;;;;;;;16.48;14.60;;;14.90;99.90;;;;;;5053247;28;20352;-91
2022/09/27 11:54:24;;;;;;;20.38;14.70;;;15.00;99.90;;;;;;5046887;28;20463;-91
2022/09/27 11:57:05;;;;;;;17.63;11.32;;;14.80;99.90;;;;;;5053324;28;20025;-91
2022/09/27 11:59:46;;;;;;;19.58;14.93;;;14.90;99.90;;;;;;5053286;28;20083;-91
2022/09/27 12:02:34;;;;;;;16.33;11.57;;;14.90;99.90;;;;;;5053284;28;20047;-91
2022/09/27 12:05:19;;;;;;;15.57;11.73;;;14.80;99.90;;;;;;5025258;28;20029;-91
2022/09/27 12:07:51;;;;;;;16.15;12.02;;;14.80;99.90;;;;;;5052893;28;20043;-91
2022/09/27 12:10:20;;;;;;;20.63;11.98;;;14.80;99.90;;;;;;5054280;28;20039;-91
2022/09/27 12:12:51;;;;;;;17.45;12.18;;;14.80;99.90;;;;;;5052207;28;20079;-91
2022/09/27 12:15:32;;;;;;;13.30;11.60;;;14.90;99.90;;;;;;5052998;28;20439;-91
2022/09/27 12:18:19;;;;;;;15.80;10.32;;;15.00;99.90;;;;;;5052853;28;20029;-90
2022/09/27 12:20:46;;;;;;;11.93;8.70;;;15.10;99.90;;;;;;5052710;28;20060;-91
2022/09/27 12:23:14;;;;;;;14.50;11.00;;;15.20;99.90;;;;;;5053259;28;20462;-91
2022/09/27 12:25:41;;;;;;;13.93;9.73;;;15.20;99.90;;;;;;5054152;28;20021;-91
2022/09/27 12:28:44;;;;;;;17.08;12.35;;;15.20;99.90;;;;;;5052751;28;20037;-91
2022/09/27 12:31:39;;;;;;;11.95;9.93;;;15.20;99.90;;;;;;5020641;28;20033;-90
2022/09/27 12:34:20;;;;;;;13.20;8.93;;;15.20;99.90;;;;;;5038725;28;20033;-91
2022/09/27 12:37:09;;;;;;;11.10;9.43;;;15.20;99.90;;;;;;5052091;28;20025;-89
2022/09/27 12:40:02;;;;;;;24.50;17.05;;;15.20;99.90;;;;;;5051912;28;20047;-91
2022/09/27 12:42:38;;;;;;;14.65;10.77;;;15.20;99.90;;;;;;5053522;28;20100;-91
2022/09/27 12:45:05;;;;;;;14.38;9.82;;;15.20;99.90;;;;;;5052221;28;20497;-92
2022/09/27 12:47:33;;;;;;;12.20;9.38;;;15.20;99.90;;;;;;5053407;28;20135;-90
2022/09/27 12:50:18;;;;;;;11.60;9.30;;;15.20;99.90;;;;;;5052281;28;20029;-89
2022/09/27 12:52:50;;;;;;;10.77;8.32;;;15.20;99.90;;;;;;5052418;28;20039;-90
2022/09/27 12:55:22;;;;;;;9.70;8.48;;;15.20;99.90;;;;;;5052171;28;20094;-90
2022/09/27 12:58:06;;;;;;;10.45;9.30;;;15.10;99.90;;;;;;5051925;28;20028;-92
2022/09/27 13:00:46;;;;;;;14.18;8.70;;;15.10;99.90;;;;;;5052091;28;20060;-90
2022/09/27 13:03:26;;;;;;;10.57;8.98;;;15.20;99.90;;;;;;5052236;28;20467;-90
2022/09/27 13:06:10;;;;;;;14.80;9.90;;;15.20;99.90;;;;;;5051951;28;20061;-91
2022/09/27 13:09:03;;;;;;;12.38;9.32;;;15.20;99.90;;;;;;5051970;28;20111;-90
2022/09/27 13:11:42;;;;;;;11.25;9.18;;;15.20;99.90;;;;;;5057803;28;20036;-90
2022/09/27 13:14:18;;;;;;;12.23;9.05;;;15.30;99.90;;;;;;5056132;28;20052;-89
2022/09/27 13:16:45;;;;;;;10.85;8.50;;;15.30;99.90;;;;;;5067016;28;20024;-91
2022/09/27 13:19:33;;;;;;;10.27;8.68;;;15.40;99.90;;;;;;5071842;28;20519;-92
2022/09/27 13:21:58;;;;;;;10.10;8.05;;;15.40;99.90;;;;;;5071785;28;20031;-91
2022/09/27 13:24:39;;;;;;;12.88;8.88;;;15.40;99.90;;;;;;5071735;28;20028;-91
2022/09/27 13:27:26;;;;;;;13.73;7.85;;;15.50;99.90;;;;;;5073358;28;20059;-90
2022/09/27 13:30:18;;;;;;;9.10;7.00;;;15.50;99.90;;;;;;5072868;28;20040;-90
2022/09/27 13:33:08;;;;;;;8.98;6.65;;;15.50;99.90;;;;;;5040280;28;20036;-91
2022/09/27 13:35:34;;;;;;;7.13;5.90;;;15.50;99.90;;;;;;5051743;28;20021;-91
2022/09/27 13:38:00;;;;;;;11.60;8.82;;;15.50;99.90;;;;;;5051790;28;20397;-91
2022/09/27 13:40:41;;;;;;;15.07;9.85;;;15.50;99.90;;;;;;5064984;28;20515;-91
2022/09/27 13:43:11;;;;;;;14.90;10.60;;;15.50;99.90;;;;;;5071688;28;20021;-91
2022/09/27 13:45:41;;;;;;;11.68;8.55;;;15.70;99.90;;;;;;5072004;28;20031;-90
2022/09/27 13:48:31;;;;;;;11.75;8.40;;;15.80;99.90;;;;;;5071561;28;20389;-91
2022/09/27 13:51:17;;;;;;;9.20;6.88;;;16.00;99.90;;;;;;5071787;28;20631;-91
2022/09/27 13:53:56;;;;;;;10.77;6.97;;;16.20;99.90;;;;;;5071611;28;20081;-90
2022/09/27 13:56:37;;;;;;;12.63;10.48;;;16.10;99.90;;;;;;5072928;28;20096;-90
2022/09/27 13:59:08;;;;;;;14.27;8.65;;;15.90;99.90;;;;;;5074093;28;20028;-90
2022/09/27 14:01:45;;;;;;;13.38;8.77;;;15.90;99.90;;;;;;5078420;28;20025;-90
2022/09/27 14:04:23;;;;;;;13.55;9.32;;;15.90;99.90;;;;;;5078115;28;20105;-92
2022/09/27 14:06:59;;;;;;;9.25;8.10;;;16.10;99.90;;;;;;5068939;28;20489;-90
2022/09/27 14:09:35;;;;;;;10.07;7.15;;;16.20;99.90;;;;;;5070531;28;20045;-90
2022/09/27 14:12:26;;;;;;;8.68;7.57;;;16.40;99.90;;;;;;5071291;28;20024;-90
2022/09/27 14:14:54;;;;;;;9.88;6.75;;;16.50;99.90;;;;;;5071497;28;20131;-90